createdAt,value
2023-07-18T00:00:54.929Z,18.67
2023-07-18T00:03:59.027Z,18.68
2023-07-18T00:07:02.564Z,18.54
2023-07-18T00:10:05.386Z,18.69
2023-07-18T00:13:08.748Z,18.63
2023-07-18T00:16:11.754Z,18.56
2023-07-18T00:19:15.937Z,18.46
2023-07-18T00:22:18.796Z,18.47
2023-07-18T00:25:22.512Z,18.45
2023-07-18T00:28:25.573Z,18.58
2023-07-18T00:31:28.774Z,18.54
2023-07-18T00:34:37.436Z,18.60
2023-07-18T00:37:41.894Z,18.69
2023-07-18T00:40:49.145Z,18.65
2023-07-18T00:43:55.032Z,18.88
2023-07-18T00:46:57.572Z,18.84
2023-07-18T00:50:00.385Z,19.02
2023-07-18T00:53:03.257Z,18.75
2023-07-18T00:56:06.718Z,18.85
2023-07-18T00:59:11.824Z,18.79
2023-07-18T01:02:14.990Z,19.01
2023-07-18T01:05:19.626Z,18.82
2023-07-18T01:08:22.364Z,18.85
2023-07-18T01:11:24.824Z,18.67
2023-07-18T01:14:27.443Z,18.60
2023-07-18T01:17:31.394Z,18.42
2023-07-18T01:20:34.601Z,18.49
2023-07-18T01:23:38.958Z,18.37
2023-07-18T01:26:41.393Z,18.16
2023-07-18T01:29:45.510Z,18.23
2023-07-18T01:32:50.013Z,18.25
2023-07-18T01:35:53.136Z,18.19
2023-07-18T01:38:56.025Z,18.00
2023-07-18T01:41:58.449Z,18.21
2023-07-18T01:45:04.017Z,18.28
2023-07-18T01:48:07.669Z,18.20
2023-07-18T01:51:10.156Z,18.23
2023-07-18T01:54:12.592Z,18.36
2023-07-18T01:57:15.862Z,18.44
2023-07-18T02:00:21.514Z,18.58
2023-07-18T02:03:24.842Z,18.45
2023-07-18T02:06:28.128Z,18.52
2023-07-18T02:09:30.731Z,18.72
2023-07-18T02:12:33.769Z,18.56
2023-07-18T02:15:37.743Z,18.81
2023-07-18T02:18:40.899Z,18.66
2023-07-18T02:21:43.982Z,18.75
2023-07-18T02:24:49.589Z,18.98
2023-07-18T02:27:52.409Z,19.02
2023-07-18T02:30:56.736Z,19.01
2023-07-18T02:33:59.760Z,18.94
2023-07-18T02:37:06.023Z,18.93
2023-07-18T02:40:13.353Z,19.03
2023-07-18T02:43:16.242Z,19.01
2023-07-18T02:46:19.603Z,18.99
2023-07-18T02:49:22.021Z,18.65
2023-07-18T02:52:25.241Z,18.83
2023-07-18T02:55:31.839Z,18.85
2023-07-18T02:58:34.693Z,18.96
2023-07-18T03:01:37.362Z,19.11
2023-07-18T03:04:40.158Z,18.98
2023-07-18T03:07:43.174Z,19.01
2023-07-18T03:10:50.254Z,18.83
2023-07-18T03:13:52.836Z,18.74
2023-07-18T03:16:56.400Z,18.91
2023-07-18T03:19:59.572Z,18.81
2023-07-18T03:23:05.859Z,18.79
2023-07-18T03:26:10.247Z,18.87
2023-07-18T03:29:13.575Z,18.84
2023-07-18T03:32:16.591Z,18.73
2023-07-18T03:35:19.199Z,18.82
2023-07-18T03:38:21.755Z,18.79
2023-07-18T03:41:24.644Z,18.69
2023-07-18T03:44:27.338Z,18.68
2023-07-18T03:47:31.289Z,18.80
2023-07-18T03:50:37.163Z,18.82
2023-07-18T03:53:41.069Z,18.77
2023-07-18T03:56:43.793Z,18.84
2023-07-18T03:59:46.673Z,18.68
2023-07-18T04:02:50.660Z,18.67
2023-07-18T04:05:53.933Z,18.57
2023-07-18T04:08:56.689Z,18.52
2023-07-18T04:11:59.513Z,18.55
2023-07-18T04:15:02.117Z,18.67
2023-07-18T04:18:04.762Z,18.67
2023-07-18T04:21:08.142Z,18.56
2023-07-18T04:24:12.158Z,18.76
2023-07-18T04:27:16.551Z,18.75
2023-07-18T04:30:19.791Z,18.99
2023-07-18T04:33:22.714Z,19.23
2023-07-18T04:36:26.237Z,19.39
2023-07-18T04:39:29.053Z,19.39
2023-07-18T04:42:31.592Z,19.52
2023-07-18T04:45:34.552Z,19.55
2023-07-18T04:48:38.250Z,19.93
2023-07-18T04:51:41.991Z,20.06
2023-07-18T04:54:44.632Z,20.18
2023-07-18T04:57:47.541Z,20.10
2023-07-18T05:00:50.981Z,20.15
2023-07-18T05:03:57.882Z,20.24
2023-07-18T05:07:01.294Z,20.24
2023-07-18T05:10:04.337Z,20.49
2023-07-18T05:13:07.198Z,20.50
2023-07-18T05:16:10.334Z,20.48
2023-07-18T05:19:13.138Z,20.64
2023-07-18T05:22:15.593Z,20.75
2023-07-18T05:25:18.828Z,21.04
2023-07-18T05:28:22.790Z,21.06
2023-07-18T05:31:29.232Z,21.37
2023-07-18T05:34:34.445Z,21.67
2023-07-18T05:37:37.050Z,21.69
2023-07-18T05:40:39.465Z,21.99
2023-07-18T05:43:42.033Z,22.30
2023-07-18T05:46:45.332Z,22.38
2023-07-18T05:49:47.730Z,22.53
2023-07-18T05:52:50.525Z,22.57
2023-07-18T05:55:53.784Z,22.93
2023-07-18T05:58:56.831Z,22.87
2023-07-18T06:02:00.482Z,23.10
2023-07-18T06:05:03.568Z,23.26
2023-07-18T06:08:06.459Z,23.82
2023-07-18T06:11:09.656Z,23.97
2023-07-18T06:14:12.384Z,24.53
2023-07-18T06:17:15.218Z,25.38
2023-07-18T06:20:18.284Z,26.40
2023-07-18T06:23:21.361Z,27.50
2023-07-18T06:26:24.217Z,28.35
2023-07-18T06:29:28.021Z,28.86
2023-07-18T06:32:32.898Z,29.39
2023-07-18T06:35:36.258Z,29.74
2023-07-18T06:38:39.321Z,29.73
2023-07-18T06:41:42.260Z,30.25
2023-07-18T06:44:45.626Z,30.72
2023-07-18T06:47:48.263Z,31.49
2023-07-18T06:50:54.858Z,31.67
2023-07-18T06:53:58.511Z,31.60
2023-07-18T06:57:01.952Z,31.89
2023-07-18T07:00:07.041Z,32.56
2023-07-18T07:03:09.890Z,32.97
2023-07-18T07:06:14.126Z,33.31
2023-07-18T07:09:17.397Z,33.55
2023-07-18T07:12:34.638Z,33.47
2023-07-18T07:15:38.984Z,33.72
2023-07-18T07:18:41.396Z,33.80
2023-07-18T07:21:44.833Z,34.22
2023-07-18T07:24:48.698Z,34.64
2023-07-18T07:27:55.074Z,34.75
2023-07-18T07:30:57.674Z,34.66
2023-07-18T07:34:00.104Z,34.94
2023-07-18T07:37:02.581Z,35.45
2023-07-18T07:40:08.826Z,36.00
2023-07-18T07:43:12.136Z,36.12
2023-07-18T07:46:15.511Z,36.00
2023-07-18T07:49:19.491Z,36.52
2023-07-18T07:52:25.323Z,36.75
2023-07-18T07:55:29.215Z,36.81
2023-07-18T07:58:31.778Z,36.49
2023-07-18T08:01:34.312Z,36.93
2023-07-18T08:04:38.613Z,37.08
2023-07-18T08:07:43.117Z,37.86
2023-07-18T08:10:46.517Z,37.54
2023-07-18T08:13:49.430Z,37.39
2023-07-18T08:16:52.750Z,37.96
2023-07-18T08:19:55.479Z,37.09
2023-07-18T08:23:00.781Z,37.58
2023-07-18T08:26:04.535Z,38.23
2023-07-18T08:29:07.456Z,38.12
2023-07-18T08:32:10.274Z,37.99
2023-07-18T08:35:12.933Z,38.64
2023-07-18T08:38:16.003Z,38.64
2023-07-18T08:41:22.515Z,38.29
2023-07-18T08:44:25.697Z,37.38
2023-07-18T08:47:28.645Z,36.86
2023-07-18T08:50:32.295Z,37.58
2023-07-18T08:53:36.284Z,38.58
2023-07-18T08:56:41.614Z,38.41
2023-07-18T08:59:44.700Z,38.65
2023-07-18T09:02:50.959Z,39.04
2023-07-18T09:05:53.754Z,38.87
2023-07-18T09:08:56.464Z,38.88
2023-07-18T09:12:05.047Z,38.43
2023-07-18T09:15:08.698Z,39.05
2023-07-18T09:18:13.901Z,39.32
2023-07-18T09:21:17.534Z,39.83
2023-07-18T09:24:20.732Z,39.63
2023-07-18T09:27:24.467Z,39.68
2023-07-18T09:30:35.526Z,39.70
2023-07-18T09:33:40.924Z,40.39
2023-07-18T09:36:56.242Z,40.20
2023-07-18T09:39:58.835Z,40.39
2023-07-18T09:43:01.831Z,40.01
2023-07-18T09:46:08.199Z,40.18
2023-07-18T09:49:14.735Z,40.82
2023-07-18T09:52:24.157Z,40.74
2023-07-18T09:55:31.762Z,40.74
2023-07-18T09:58:39.467Z,41.61
2023-07-18T10:01:42.054Z,41.78
2023-07-18T10:04:46.052Z,41.40
2023-07-18T10:07:49.238Z,41.40
2023-07-18T10:11:05.688Z,42.14
2023-07-18T10:14:08.466Z,41.71
2023-07-18T10:17:11.390Z,41.66
2023-07-18T10:20:25.130Z,41.65
2023-07-18T10:23:44.590Z,42.24
2023-07-18T10:26:52.414Z,42.15
2023-07-18T10:30:10.511Z,41.45
2023-07-18T10:33:15.085Z,40.55
2023-07-18T10:36:26.853Z,41.83
2023-07-18T10:39:50.685Z,37.10
2023-07-18T10:42:53.342Z,38.88
2023-07-18T10:45:56.660Z,36.16
2023-07-18T10:48:59.306Z,34.39
2023-07-18T10:52:04.971Z,33.50
2023-07-18T10:55:08.083Z,32.17
2023-07-18T10:58:15.899Z,31.56
2023-07-18T11:01:19.664Z,31.12
2023-07-18T11:04:26.531Z,31.20
2023-07-18T11:07:34.246Z,31.08
2023-07-18T11:10:37.139Z,31.05
2023-07-18T11:13:40.693Z,32.93
2023-07-18T11:16:43.964Z,33.09
2023-07-18T11:19:48.193Z,35.67
2023-07-18T11:22:52.026Z,37.27
2023-07-18T11:25:54.777Z,37.39
2023-07-18T11:29:00.802Z,38.19
2023-07-18T11:32:04.120Z,38.43
2023-07-18T11:35:12.478Z,36.93
2023-07-18T11:38:18.866Z,36.11
2023-07-18T11:41:40.951Z,34.65
2023-07-18T11:44:45.277Z,34.25
2023-07-18T11:47:51.586Z,34.66
2023-07-18T11:50:54.362Z,35.81
2023-07-18T11:53:56.920Z,36.96
2023-07-18T11:56:59.300Z,35.27
2023-07-18T12:00:02.216Z,33.98
2023-07-18T12:03:04.852Z,33.57
2023-07-18T12:06:08.125Z,32.65
2023-07-18T12:09:12.911Z,32.29
2023-07-18T12:12:15.745Z,31.78
2023-07-18T12:15:18.615Z,31.44
2023-07-18T12:18:22.799Z,30.39
2023-07-18T12:21:25.846Z,30.86
2023-07-18T12:24:28.714Z,30.99
2023-07-18T12:27:31.486Z,32.92
2023-07-18T12:30:36.630Z,34.71
2023-07-18T12:33:39.720Z,35.29
2023-07-18T12:36:42.709Z,35.42
2023-07-18T12:39:46.179Z,35.80
2023-07-18T12:42:49.076Z,34.58
2023-07-18T12:45:51.433Z,33.27
2023-07-18T12:49:03.601Z,31.99
2023-07-18T12:52:09.268Z,31.81
2023-07-18T12:55:12.914Z,31.27
2023-07-18T12:58:16.104Z,32.84
2023-07-18T13:01:18.668Z,34.44
2023-07-18T13:04:21.107Z,34.21
2023-07-18T13:07:26.333Z,34.97
2023-07-18T13:10:30.053Z,35.01
2023-07-18T13:13:32.890Z,34.70
2023-07-18T13:16:37.974Z,34.83
2023-07-18T13:19:41.162Z,34.63
2023-07-18T13:22:43.624Z,33.79
2023-07-18T13:25:46.674Z,33.49
2023-07-18T13:28:49.614Z,33.77
2023-07-18T13:31:56.097Z,34.70
2023-07-18T13:34:59.617Z,34.96
2023-07-18T13:38:03.230Z,34.75
2023-07-18T13:41:09.536Z,34.57
2023-07-18T13:44:15.930Z,34.56
2023-07-18T13:47:18.704Z,32.70
2023-07-18T13:50:31.266Z,31.51
2023-07-18T13:53:34.342Z,30.98
2023-07-18T13:56:39.951Z,31.01
2023-07-18T13:59:45.107Z,30.66
2023-07-18T14:02:51.443Z,31.08
2023-07-18T14:05:56.172Z,31.13
2023-07-18T14:08:58.666Z,30.74
2023-07-18T14:12:02.347Z,31.20
2023-07-18T14:15:05.822Z,31.82
2023-07-18T14:18:11.292Z,32.00
2023-07-18T14:21:15.151Z,32.02
2023-07-18T14:24:19.509Z,31.82
2023-07-18T14:27:23.423Z,31.10
2023-07-18T14:30:26.580Z,30.59
2023-07-18T14:33:29.837Z,30.81
2023-07-18T14:36:33.509Z,30.90
2023-07-18T14:39:39.840Z,30.68
2023-07-18T14:42:44.957Z,30.55
2023-07-18T14:45:48.023Z,30.36
2023-07-18T14:48:50.756Z,30.54
2023-07-18T14:52:01.073Z,30.78
2023-07-18T14:55:04.037Z,30.82
2023-07-18T14:58:08.285Z,30.45
2023-07-18T15:01:11.115Z,30.18
2023-07-18T15:04:15.185Z,30.17
2023-07-18T15:07:17.599Z,29.98
2023-07-18T15:10:20.616Z,29.99
2023-07-18T15:13:23.705Z,29.73
2023-07-18T15:16:27.053Z,29.80
2023-07-18T15:19:30.296Z,29.79
2023-07-18T15:22:33.041Z,29.78
2023-07-18T15:25:36.042Z,29.32
2023-07-18T15:28:38.918Z,29.19
2023-07-18T15:31:42.027Z,29.45
2023-07-18T15:34:44.708Z,29.52
2023-07-18T15:37:47.400Z,29.44
2023-07-18T15:40:50.135Z,29.38
2023-07-18T15:43:53.637Z,29.34
2023-07-18T15:46:59.372Z,29.08
2023-07-18T15:50:02.513Z,28.99
2023-07-18T15:53:04.943Z,28.99
2023-07-18T15:56:07.416Z,28.96
2023-07-18T15:59:10.619Z,28.87
2023-07-18T16:02:15.318Z,28.67
2023-07-18T16:05:19.256Z,28.69
2023-07-18T16:08:23.650Z,28.73
2023-07-18T16:11:27.200Z,28.55
2023-07-18T16:14:30.173Z,28.58
2023-07-18T16:17:32.809Z,28.38
2023-07-18T16:20:35.727Z,28.29
2023-07-18T16:23:38.834Z,28.21
2023-07-18T16:26:41.472Z,28.07
2023-07-18T16:29:45.453Z,28.14
2023-07-18T16:32:48.672Z,28.08
2023-07-18T16:35:52.054Z,28.06
2023-07-18T16:38:54.715Z,28.00
2023-07-18T16:42:06.397Z,27.92
2023-07-18T16:45:16.681Z,27.78
2023-07-18T16:48:20.345Z,27.72
2023-07-18T16:51:22.689Z,27.61
2023-07-18T16:54:25.045Z,27.60
2023-07-18T16:57:27.659Z,27.49
2023-07-18T17:00:31.130Z,27.40
2023-07-18T17:03:34.851Z,27.29
2023-07-18T17:06:37.388Z,27.31
2023-07-18T17:09:39.840Z,27.27
2023-07-18T17:12:45.845Z,26.97
2023-07-18T17:15:52.121Z,26.98
2023-07-18T17:18:55.226Z,27.02
2023-07-18T17:21:58.675Z,26.89
2023-07-18T17:25:01.384Z,26.98
2023-07-18T17:28:04.543Z,26.81
2023-07-18T17:31:07.546Z,26.74
2023-07-18T17:34:10.270Z,26.40
2023-07-18T17:37:12.903Z,26.32
2023-07-18T17:40:15.957Z,26.03
2023-07-18T17:43:18.631Z,26.03
2023-07-18T17:46:21.108Z,25.94
2023-07-18T17:49:23.786Z,25.81
2023-07-18T17:52:26.713Z,25.60
2023-07-18T17:55:31.308Z,25.53
2023-07-18T17:58:33.848Z,25.48
2023-07-18T18:01:38.925Z,25.31
2023-07-18T18:04:41.561Z,25.10
2023-07-18T18:07:44.515Z,25.15
2023-07-18T18:10:48.143Z,25.13
2023-07-18T18:14:00.487Z,25.10
2023-07-18T18:17:04.609Z,24.89
2023-07-18T18:20:09.262Z,24.84
2023-07-18T18:23:20.462Z,24.66
2023-07-18T18:26:31.275Z,24.48
2023-07-18T18:29:34.037Z,24.36
2023-07-18T18:32:37.265Z,24.38
2023-07-18T18:35:46.294Z,24.33
2023-07-18T18:38:52.669Z,24.16
2023-07-18T18:41:56.477Z,24.16
2023-07-18T18:44:59.492Z,24.05
2023-07-18T18:48:02.375Z,23.88
2023-07-18T18:51:06.144Z,23.72
2023-07-18T18:54:17.697Z,23.82
2023-07-18T18:57:20.864Z,23.76
2023-07-18T19:00:23.739Z,23.60
2023-07-18T19:03:26.959Z,23.83
2023-07-18T19:06:29.873Z,23.44
2023-07-18T19:09:32.656Z,23.82
2023-07-18T19:12:35.540Z,23.37
2023-07-18T19:15:38.330Z,23.50
2023-07-18T19:18:40.704Z,23.50
2023-07-18T19:21:43.432Z,23.23
2023-07-18T19:24:47.104Z,23.20
2023-07-18T19:27:49.634Z,23.06
2023-07-18T19:30:52.689Z,23.03
2023-07-18T19:33:56.510Z,23.15
2023-07-18T19:36:59.410Z,23.15
2023-07-18T19:40:05.590Z,23.16
2023-07-18T19:43:08.004Z,23.31
2023-07-18T19:46:10.916Z,23.71
2023-07-18T19:49:14.046Z,23.73
2023-07-18T19:52:16.383Z,23.64
2023-07-18T19:55:18.802Z,23.50
2023-07-18T19:58:21.255Z,23.48
2023-07-18T20:01:25.625Z,23.60
2023-07-18T20:04:28.723Z,23.44
2023-07-18T20:07:32.077Z,23.34
2023-07-18T20:10:34.618Z,23.38
2023-07-18T20:13:37.208Z,23.29
2023-07-18T20:16:40.284Z,23.28
2023-07-18T20:19:45.057Z,23.18
2023-07-18T20:22:47.851Z,23.08
2023-07-18T20:25:50.578Z,22.91
2023-07-18T20:28:53.337Z,22.76
2023-07-18T20:31:56.234Z,22.65
2023-07-18T20:34:59.052Z,22.60
2023-07-18T20:38:01.703Z,22.40
2023-07-18T20:41:09.482Z,22.48
2023-07-18T20:44:18.394Z,22.39
2023-07-18T20:47:21.975Z,22.41
2023-07-18T20:50:24.646Z,22.57
2023-07-18T20:53:29.629Z,22.61
2023-07-18T20:56:32.173Z,22.69
2023-07-18T20:59:34.524Z,22.68
2023-07-18T21:02:38.637Z,22.71
2023-07-18T21:05:41.333Z,22.68
2023-07-18T21:08:44.503Z,22.78
2023-07-18T21:11:46.921Z,22.65
2023-07-18T21:14:49.454Z,22.68
2023-07-18T21:17:52.144Z,22.73
2023-07-18T21:20:54.660Z,22.85
2023-07-18T21:23:58.704Z,22.87
2023-07-18T21:27:01.890Z,22.94
2023-07-18T21:30:08.475Z,23.05
2023-07-18T21:33:11.978Z,23.15
2023-07-18T21:36:16.870Z,23.10
2023-07-18T21:39:19.349Z,23.04
2023-07-18T21:42:22.024Z,23.04
2023-07-18T21:45:24.952Z,23.16
2023-07-18T21:48:28.098Z,23.23
2023-07-18T21:51:30.626Z,23.32
2023-07-18T21:54:33.030Z,23.16
2023-07-18T21:57:35.741Z,23.25
2023-07-18T22:00:38.788Z,23.17
2023-07-18T22:03:44.814Z,23.17
2023-07-18T22:06:48.026Z,23.19
2023-07-18T22:09:52.360Z,23.15
2023-07-18T22:12:55.186Z,23.18
2023-07-18T22:15:57.718Z,23.18
2023-07-18T22:19:03.467Z,23.04
2023-07-18T22:22:06.688Z,23.09
2023-07-18T22:25:09.848Z,23.00
2023-07-18T22:28:12.849Z,23.05
2023-07-18T22:31:16.531Z,23.16
2023-07-18T22:34:19.124Z,23.14
2023-07-18T22:37:22.211Z,22.90
2023-07-18T22:40:24.817Z,22.75
2023-07-18T22:43:29.180Z,22.56
2023-07-18T22:46:32.472Z,22.52
2023-07-18T22:49:34.897Z,22.36
2023-07-18T22:52:38.169Z,22.30
2023-07-18T22:55:40.776Z,22.24
2023-07-18T22:58:45.144Z,22.22
2023-07-18T23:01:48.217Z,22.33
2023-07-18T23:04:51.252Z,22.23
2023-07-18T23:07:54.473Z,22.18
2023-07-18T23:10:57.525Z,22.04
2023-07-18T23:14:00.889Z,22.02
2023-07-18T23:17:03.762Z,22.01
2023-07-18T23:20:07.990Z,21.89
2023-07-18T23:23:10.448Z,21.72
2023-07-18T23:26:14.924Z,21.78
2023-07-18T23:29:20.892Z,21.67
2023-07-18T23:32:23.907Z,21.57
2023-07-18T23:35:26.979Z,21.47
2023-07-18T23:38:29.518Z,21.48
2023-07-18T23:41:32.092Z,21.36
2023-07-18T23:44:40.522Z,21.50
2023-07-18T23:47:43.258Z,21.30
2023-07-18T23:50:45.621Z,21.34
2023-07-18T23:53:49.269Z,21.49
2023-07-18T23:56:51.879Z,21.38
2023-07-18T23:59:54.260Z,21.59
